KEOK/EOK METAR and TAF weather

Enter ICAO airport designator
Station Type Date Time Source
KEOK METAR 2020/07/02 19:35 UTC NOAA

KEOK 021935Z AUTO 05006KT 10SM 29/25 A3000 RMK AO2


Station Type Date Time Source
KEOK Decoded METAR 2020/07/02 19:35 UTC NOAA

Keokuk Municipal, IA, United States (KEOK) 40-28N 091-26W
Jul 02, 2020 - 03:35 PM EDT / 2020.07.02 1935 UTC
Wind: from the NE (050 degrees) at 7 MPH (6 KT):0
Visibility: 10 mile(s):0
Temperature: 84 F (29 C)
Dew Point: 77 F (25 C)
Relative Humidity: 79%
Pressure (altimeter): 30 in. Hg (1015 hPa)
ob: KEOK 021935Z AUTO 05006KT 10SM 29/25 A3000 RMK AO2
cycle: 19

Station Type Date Time Source
KEOK TAF UTC NOAA

Error!

Example: see airport list